createdAt,value
2019-02-27T00:00:58.129Z,205.57
2019-02-27T00:03:29.637Z,199.13
2019-02-27T00:05:58.949Z,204.33
2019-02-27T00:08:28.499Z,209.87
2019-02-27T00:10:58.140Z,192.77
2019-02-27T00:13:27.774Z,196.50
2019-02-27T00:15:57.417Z,195.77
2019-02-27T00:18:27.162Z,205.13
2019-02-27T00:20:57.074Z,192.97
2019-02-27T00:23:26.787Z,199.90
2019-02-27T00:25:56.190Z,200.57
2019-02-27T00:28:26.846Z,208.60
2019-02-27T00:30:56.136Z,229.63
2019-02-27T00:33:27.934Z,231.83
2019-02-27T00:35:57.038Z,216.57
2019-02-27T00:38:26.772Z,224.77
2019-02-27T00:40:56.053Z,224.80
2019-02-27T00:43:26.013Z,213.20
2019-02-27T00:45:56.481Z,215.10
2019-02-27T00:48:26.717Z,210.83
2019-02-27T00:50:56.560Z,216.47
2019-02-27T00:53:25.758Z,211.63
2019-02-27T00:55:55.321Z,206.57
2019-02-27T00:58:27.079Z,206.77
2019-02-27T01:00:56.336Z,208.23
2019-02-27T01:03:26.757Z,206.07
2019-02-27T01:05:56.453Z,208.37
2019-02-27T01:08:27.608Z,215.63
2019-02-27T01:10:57.082Z,207.40
2019-02-27T01:13:28.891Z,212.00
2019-02-27T01:15:58.002Z,219.30
2019-02-27T01:18:30.394Z,209.60
2019-02-27T01:20:59.084Z,210.93
2019-02-27T01:23:28.710Z,204.23
2019-02-27T01:25:57.935Z,206.47
2019-02-27T01:28:27.502Z,216.30
2019-02-27T01:30:57.322Z,213.50
2019-02-27T01:33:26.527Z,213.03
2019-02-27T01:35:56.106Z,207.00
2019-02-27T01:38:25.413Z,206.37
2019-02-27T01:40:54.544Z,202.30
2019-02-27T01:43:24.313Z,201.50
2019-02-27T01:45:55.079Z,201.77
2019-02-27T01:48:24.312Z,196.67
2019-02-27T01:50:55.293Z,197.00
2019-02-27T01:53:24.682Z,206.60
2019-02-27T01:55:56.162Z,191.10
2019-02-27T01:58:24.802Z,197.03
2019-02-27T02:00:56.068Z,196.60
2019-02-27T02:03:24.809Z,191.00
2019-02-27T02:05:54.411Z,193.70
2019-02-27T02:08:23.608Z,194.57
2019-02-27T02:10:54.611Z,190.67
2019-02-27T02:14:07.359Z,193.70
2019-02-27T02:17:08.678Z,194.23
2019-02-27T02:20:03.771Z,185.80
2019-02-27T02:22:43.809Z,186.07
2019-02-27T02:25:21.418Z,198.90
2019-02-27T02:28:14.766Z,196.27
2019-02-27T02:31:09.787Z,182.00
2019-02-27T02:34:05.140Z,181.87
2019-02-27T02:36:49.331Z,186.63
2019-02-27T02:39:54.692Z,198.43
2019-02-27T02:42:48.184Z,192.07
2019-02-27T02:45:23.774Z,180.70
2019-02-27T02:48:22.991Z,188.10
2019-02-27T02:51:11.446Z,192.10
2019-02-27T02:54:00.712Z,197.50
2019-02-27T02:56:33.245Z,199.50
2019-02-27T02:59:39.014Z,185.47
2019-02-27T03:02:14.438Z,192.40
2019-02-27T03:05:14.891Z,190.47
2019-02-27T03:07:48.932Z,192.67
2019-02-27T03:10:33.000Z,181.63
2019-02-27T03:13:45.171Z,191.83
2019-02-27T03:16:41.455Z,197.67
2019-02-27T03:19:47.324Z,188.37
2019-02-27T03:22:43.063Z,180.27
2019-02-27T03:25:42.056Z,200.87
2019-02-27T03:28:42.981Z,206.20
2019-02-27T03:31:43.820Z,210.60
2019-02-27T03:35:07.377Z,196.37
2019-02-27T03:38:07.745Z,192.93
2019-02-27T03:41:09.213Z,204.73
2019-02-27T03:43:48.452Z,201.53
2019-02-27T03:46:34.128Z,207.03
2019-02-27T03:49:07.205Z,194.03
2019-02-27T03:52:20.617Z,212.77
2019-02-27T03:55:11.847Z,190.53
2019-02-27T03:57:56.122Z,210.97
2019-02-27T04:00:34.223Z,196.83
2019-02-27T04:03:18.152Z,199.97
2019-02-27T04:06:27.534Z,202.93
2019-02-27T04:09:01.241Z,187.80
2019-02-27T04:11:32.634Z,197.40
2019-02-27T04:14:04.699Z,191.30
2019-02-27T04:16:32.686Z,185.70
2019-02-27T04:19:04.614Z,199.80
2019-02-27T04:21:33.292Z,211.67
2019-02-27T04:24:02.485Z,190.10
2019-02-27T04:26:32.029Z,192.77
2019-02-27T04:29:04.490Z,190.37
2019-02-27T04:31:33.073Z,174.43
2019-02-27T04:34:02.274Z,181.17
2019-02-27T04:36:31.849Z,179.30
2019-02-27T04:39:02.548Z,175.90
2019-02-27T04:41:33.986Z,166.73
2019-02-27T04:44:06.072Z,174.00
2019-02-27T04:46:34.184Z,175.07
2019-02-27T04:49:04.921Z,175.90
2019-02-27T04:51:34.301Z,176.00
2019-02-27T04:54:06.270Z,179.93
2019-02-27T04:56:34.395Z,185.77
2019-02-27T04:59:04.062Z,175.87
2019-02-27T05:01:36.331Z,173.17
2019-02-27T05:04:05.114Z,168.67
2019-02-27T05:06:34.424Z,175.43
2019-02-27T05:09:05.916Z,169.33
2019-02-27T05:11:36.751Z,164.07
2019-02-27T05:14:05.849Z,172.97
2019-02-27T05:16:35.608Z,163.53
2019-02-27T05:19:04.921Z,163.30
2019-02-27T05:21:34.027Z,168.57
2019-02-27T05:24:05.250Z,166.90
2019-02-27T05:26:34.516Z,154.60
2019-02-27T05:29:03.685Z,161.50
2019-02-27T05:31:33.207Z,166.13
2019-02-27T05:34:02.419Z,169.37
2019-02-27T05:36:32.387Z,162.00
2019-02-27T05:39:02.258Z,160.07
2019-02-27T05:41:33.785Z,149.93
2019-02-27T05:44:03.179Z,153.60
2019-02-27T05:46:32.294Z,156.40
2019-02-27T05:49:01.399Z,157.60
2019-02-27T05:51:30.765Z,148.60
2019-02-27T05:53:59.950Z,148.20
2019-02-27T05:56:29.556Z,148.43
2019-02-27T05:58:58.930Z,151.27
2019-02-27T06:01:28.067Z,137.37
2019-02-27T06:03:57.674Z,143.13
2019-02-27T06:06:26.870Z,150.00
2019-02-27T06:08:55.970Z,123.53
2019-02-27T06:11:27.054Z,136.97
2019-02-27T06:13:56.922Z,123.97
2019-02-27T06:16:26.505Z,131.13
2019-02-27T06:18:56.876Z,130.43
2019-02-27T06:21:26.490Z,134.27
2019-02-27T06:23:55.627Z,132.27
2019-02-27T06:26:25.178Z,132.23
2019-02-27T06:28:54.409Z,132.60
2019-02-27T06:31:24.021Z,125.83
2019-02-27T06:33:53.289Z,113.60
2019-02-27T06:36:22.484Z,107.73
2019-02-27T06:38:52.116Z,100.10
2019-02-27T06:41:49.759Z,92.37
2019-02-27T06:44:21.393Z,92.90
2019-02-27T06:46:51.097Z,83.63
2019-02-27T06:49:22.314Z,86.17
2019-02-27T06:51:52.117Z,80.17
2019-02-27T06:54:21.810Z,82.03
2019-02-27T06:56:51.444Z,74.50
2019-02-27T06:59:24.833Z,76.67
2019-02-27T07:01:51.493Z,78.70
2019-02-27T07:04:21.058Z,70.57
2019-02-27T07:06:50.253Z,71.17
2019-02-27T07:09:19.837Z,70.77
2019-02-27T07:11:49.742Z,73.73
2019-02-27T07:14:21.330Z,69.33
2019-02-27T07:16:51.001Z,69.27
2019-02-27T07:19:20.223Z,64.17
2019-02-27T07:21:49.763Z,66.50
2019-02-27T07:24:19.408Z,67.83
2019-02-27T07:26:50.250Z,65.07
2019-02-27T07:29:22.086Z,63.67
2019-02-27T07:31:52.040Z,64.60
2019-02-27T07:34:22.358Z,62.50
2019-02-27T07:36:51.982Z,59.57
2019-02-27T07:39:21.670Z,58.13
2019-02-27T07:41:50.975Z,56.60
2019-02-27T07:44:20.118Z,61.43
2019-02-27T07:46:50.497Z,62.10
2019-02-27T07:49:20.191Z,62.33
2019-02-27T07:51:49.875Z,60.80
2019-02-27T07:54:19.083Z,59.63
2019-02-27T07:56:48.301Z,55.00
2019-02-27T07:59:18.579Z,57.40
2019-02-27T08:01:48.129Z,58.83
2019-02-27T08:04:19.512Z,53.97
2019-02-27T08:06:50.311Z,58.63
2019-02-27T08:09:19.486Z,59.37
2019-02-27T08:11:49.042Z,54.93
2019-02-27T08:14:18.678Z,58.17
2019-02-27T08:16:48.327Z,55.50
2019-02-27T08:19:17.608Z,50.47
2019-02-27T08:21:47.277Z,56.87
2019-02-27T08:24:16.954Z,52.20
2019-02-27T08:26:46.264Z,56.73
2019-02-27T08:29:15.813Z,53.77
2019-02-27T08:31:45.538Z,57.50
2019-02-27T08:34:15.386Z,56.60
2019-02-27T08:36:44.751Z,53.67
2019-02-27T08:39:14.554Z,57.67
2019-02-27T08:41:44.403Z,55.20
2019-02-27T08:44:13.671Z,63.77
2019-02-27T08:46:43.382Z,55.30
2019-02-27T08:49:12.990Z,55.30
2019-02-27T08:51:42.689Z,56.30
2019-02-27T08:54:11.982Z,61.13
2019-02-27T08:56:44.077Z,58.13
2019-02-27T08:59:12.851Z,58.53
2019-02-27T09:01:42.934Z,56.93
2019-02-27T09:04:12.379Z,57.60
2019-02-27T09:06:42.137Z,60.40
2019-02-27T09:09:11.475Z,53.50
2019-02-27T09:11:40.822Z,57.33
2019-02-27T09:14:12.006Z,60.27
2019-02-27T09:16:41.644Z,57.53
2019-02-27T09:21:42.187Z,55.60
2019-02-27T09:24:11.899Z,58.03
2019-02-27T09:26:42.401Z,60.53
2019-02-27T09:29:11.706Z,57.33
2019-02-27T09:31:50.512Z,57.30
2019-02-27T09:34:11.753Z,57.83
2019-02-27T09:36:43.114Z,57.97
2019-02-27T09:39:12.215Z,55.93
2019-02-27T09:41:46.056Z,54.23
2019-02-27T09:44:12.964Z,57.33
2019-02-27T09:46:42.698Z,51.93
2019-02-27T09:49:12.429Z,52.83
2019-02-27T09:51:42.065Z,48.17
2019-02-27T09:54:13.323Z,49.37
2019-02-27T09:56:43.648Z,54.47
2019-02-27T09:59:13.194Z,50.07
2019-02-27T10:01:42.942Z,49.77
2019-02-27T10:04:12.148Z,47.63
2019-02-27T10:06:42.852Z,49.40
2019-02-27T10:09:17.066Z,47.90
2019-02-27T10:11:46.330Z,48.53
2019-02-27T10:14:16.421Z,46.97
2019-02-27T10:16:46.626Z,48.13
2019-02-27T10:19:17.174Z,46.27
2019-02-27T10:21:47.559Z,42.60
2019-02-27T10:24:18.216Z,43.00
2019-02-27T10:26:47.356Z,40.07
2019-02-27T10:29:16.571Z,43.30
2019-02-27T10:31:46.386Z,40.20
2019-02-27T10:34:17.720Z,41.33
2019-02-27T10:36:48.552Z,40.07
2019-02-27T10:39:17.799Z,41.40
2019-02-27T10:41:49.775Z,40.73
2019-02-27T10:44:18.665Z,40.87
2019-02-27T10:46:47.906Z,36.63
2019-02-27T10:49:21.344Z,38.30
2019-02-27T10:51:48.278Z,38.03
2019-02-27T10:54:17.496Z,39.83
2019-02-27T10:56:46.593Z,38.20
2019-02-27T10:59:15.701Z,39.87
2019-02-27T11:01:46.110Z,38.73
2019-02-27T11:04:15.483Z,39.70
2019-02-27T11:06:45.822Z,35.17
2019-02-27T11:09:28.158Z,38.37
2019-02-27T11:11:57.761Z,38.17
2019-02-27T11:14:31.715Z,37.83
2019-02-27T11:17:02.161Z,38.77
2019-02-27T11:19:31.235Z,35.77
2019-02-27T11:22:00.498Z,38.53
2019-02-27T11:24:29.830Z,39.70
2019-02-27T11:26:58.934Z,36.73
2019-02-27T11:29:28.030Z,40.00
2019-02-27T11:31:57.685Z,59.93
2019-02-27T11:34:27.953Z,36.83
2019-02-27T11:36:57.518Z,35.27
2019-02-27T11:39:27.362Z,38.90
2019-02-27T11:41:56.799Z,33.83
2019-02-27T11:44:25.966Z,37.53
2019-02-27T11:46:59.016Z,34.90
2019-02-27T11:49:26.354Z,34.73
2019-02-27T11:51:57.025Z,31.77
2019-02-27T11:54:26.334Z,31.60
2019-02-27T11:56:57.023Z,32.73
2019-02-27T11:59:27.473Z,32.97
2019-02-27T12:01:56.698Z,34.13
2019-02-27T12:04:25.806Z,29.07
2019-02-27T12:06:55.183Z,32.10
2019-02-27T12:09:24.306Z,29.13
2019-02-27T12:11:53.610Z,26.77
2019-02-27T12:14:23.174Z,30.40
2019-02-27T12:16:52.519Z,26.93
2019-02-27T12:19:22.307Z,27.57
2019-02-27T12:21:51.921Z,24.67
2019-02-27T12:24:21.111Z,23.30
2019-02-27T12:26:50.253Z,25.03
2019-02-27T12:29:19.370Z,22.77
2019-02-27T12:31:48.978Z,25.90
2019-02-27T12:34:19.647Z,21.33
2019-02-27T12:36:49.952Z,24.43
2019-02-27T12:39:20.288Z,21.87
2019-02-27T12:41:49.589Z,21.77
2019-02-27T12:44:19.174Z,23.07
2019-02-27T12:46:48.861Z,22.60
2019-02-27T12:49:19.977Z,23.17
2019-02-27T12:51:49.803Z,23.73
2019-02-27T12:54:19.437Z,24.53
2019-02-27T12:56:48.645Z,30.07
2019-02-27T12:59:17.759Z,25.10
2019-02-27T13:01:50.794Z,24.53
2019-02-27T13:04:19.916Z,24.07
2019-02-27T13:06:49.434Z,25.20
2019-02-27T13:09:19.055Z,22.67
2019-02-27T13:11:48.702Z,26.50
2019-02-27T13:14:18.297Z,24.90
2019-02-27T13:16:49.659Z,24.03
2019-02-27T13:19:18.329Z,23.50
2019-02-27T13:21:47.959Z,26.87
2019-02-27T13:24:17.572Z,27.17
2019-02-27T13:26:46.758Z,24.13
2019-02-27T13:29:15.841Z,26.40
2019-02-27T13:31:45.386Z,26.50
2019-02-27T13:34:14.625Z,28.27
2019-02-27T13:36:46.884Z,22.33
2019-02-27T13:39:17.776Z,24.00
2019-02-27T13:41:47.002Z,23.63
2019-02-27T13:44:17.600Z,22.77
2019-02-27T13:46:47.266Z,24.90
2019-02-27T13:49:16.494Z,23.77
2019-02-27T13:51:46.052Z,24.20
2019-02-27T13:54:15.669Z,22.03
2019-02-27T13:56:45.297Z,23.10
2019-02-27T13:59:14.538Z,21.80
2019-02-27T14:01:44.084Z,20.73
2019-02-27T14:04:13.446Z,22.13
2019-02-27T14:06:43.464Z,21.13
2019-02-27T14:09:14.193Z,21.80
2019-02-27T14:11:43.946Z,25.33
2019-02-27T14:14:15.157Z,23.90
2019-02-27T14:16:44.716Z,21.70
2019-02-27T14:19:14.315Z,19.13
2019-02-27T14:21:43.510Z,19.97
2019-02-27T14:24:13.151Z,18.60
2019-02-27T14:26:42.725Z,20.63
2019-02-27T14:29:11.860Z,20.37
2019-02-27T14:31:43.421Z,17.87
2019-02-27T14:34:12.398Z,20.87
2019-02-27T14:36:42.403Z,17.50
2019-02-27T14:39:14.616Z,17.37
2019-02-27T14:41:47.922Z,17.20
2019-02-27T14:44:15.570Z,16.27
2019-02-27T14:46:45.772Z,18.60
2019-02-27T14:49:15.686Z,18.00
2019-02-27T14:51:44.905Z,20.93
2019-02-27T14:54:14.082Z,22.50
2019-02-27T14:56:43.794Z,24.17
2019-02-27T14:59:13.023Z,22.57
2019-02-27T15:01:42.170Z,24.10
2019-02-27T15:04:11.369Z,22.23
2019-02-27T15:06:40.486Z,23.93
2019-02-27T15:09:09.613Z,23.77
2019-02-27T15:11:39.794Z,21.10
2019-02-27T15:14:09.681Z,22.37
2019-02-27T15:16:40.330Z,20.33
2019-02-27T15:19:09.970Z,18.80
2019-02-27T15:21:40.401Z,16.53
2019-02-27T15:24:10.497Z,19.97
2019-02-27T15:26:45.226Z,25.57
2019-02-27T15:29:10.992Z,19.23
2019-02-27T15:31:40.221Z,21.70
2019-02-27T15:34:12.247Z,18.27
2019-02-27T15:36:41.230Z,16.50
2019-02-27T15:39:10.919Z,18.80
2019-02-27T15:41:41.784Z,19.00
2019-02-27T15:44:11.422Z,16.93
2019-02-27T15:46:40.617Z,15.33
2019-02-27T15:49:12.863Z,15.23
2019-02-27T15:51:41.005Z,20.73
2019-02-27T15:54:11.590Z,18.60
2019-02-27T15:56:41.999Z,20.30
2019-02-27T15:59:11.685Z,16.93
2019-02-27T16:01:41.222Z,17.53
2019-02-27T16:04:10.463Z,17.43
2019-02-27T16:06:40.690Z,18.17
2019-02-27T16:09:09.914Z,20.73
2019-02-27T16:11:40.906Z,20.17
2019-02-27T16:14:10.555Z,18.57
2019-02-27T16:16:39.720Z,20.70
2019-02-27T16:19:10.802Z,20.83
2019-02-27T16:21:40.912Z,22.20
2019-02-27T16:24:10.245Z,19.47
2019-02-27T16:26:39.381Z,20.07
2019-02-27T16:29:08.910Z,21.03
2019-02-27T16:31:40.045Z,16.53
2019-02-27T16:34:10.426Z,17.47
2019-02-27T16:36:40.043Z,17.03
2019-02-27T16:39:09.708Z,16.80
2019-02-27T16:41:41.088Z,20.50
2019-02-27T16:44:11.212Z,18.43
2019-02-27T16:46:44.728Z,16.53
2019-02-27T16:49:11.942Z,15.90
2019-02-27T16:51:41.708Z,15.87
2019-02-27T16:54:11.347Z,18.17
2019-02-27T16:56:46.412Z,15.27
2019-02-27T16:59:12.221Z,15.73
2019-02-27T17:01:41.516Z,14.23
2019-02-27T17:04:11.432Z,13.77
2019-02-27T17:06:40.700Z,14.70
2019-02-27T17:09:10.751Z,21.27
2019-02-27T17:11:41.268Z,24.37
2019-02-27T17:14:10.867Z,35.90
2019-02-27T17:16:44.515Z,21.57
2019-02-27T17:19:17.637Z,18.13
2019-02-27T17:21:47.227Z,19.10
2019-02-27T17:24:20.956Z,18.93
2019-02-27T17:26:47.187Z,18.10
2019-02-27T17:29:16.609Z,20.93
2019-02-27T17:31:49.266Z,20.23
2019-02-27T17:34:17.066Z,23.07
2019-02-27T17:36:46.220Z,21.77
2019-02-27T17:39:15.352Z,22.53
2019-02-27T17:41:45.379Z,24.23
2019-02-27T17:44:14.675Z,25.93
2019-02-27T17:46:44.510Z,26.23
2019-02-27T17:49:13.726Z,31.43
2019-02-27T17:51:43.425Z,32.87
2019-02-27T17:54:12.673Z,29.30
2019-02-27T17:56:41.759Z,33.10
2019-02-27T17:59:11.294Z,29.53
2019-02-27T18:01:40.969Z,26.60
2019-02-27T18:04:14.199Z,32.23
2019-02-27T18:06:40.952Z,28.07
2019-02-27T18:09:10.112Z,31.00
2019-02-27T18:11:39.693Z,31.07
2019-02-27T18:14:10.181Z,28.37
2019-02-27T18:16:41.061Z,30.20
2019-02-27T18:19:10.455Z,29.00
2019-02-27T18:21:40.222Z,40.17
2019-02-27T18:24:09.893Z,36.20
2019-02-27T18:26:39.585Z,32.43
2019-02-27T18:29:08.859Z,37.73
2019-02-27T18:31:37.954Z,33.90
2019-02-27T18:34:07.517Z,30.97
2019-02-27T18:36:42.712Z,30.70
2019-02-27T18:39:08.323Z,30.60
2019-02-27T18:41:39.738Z,28.30
2019-02-27T18:44:09.028Z,31.60
2019-02-27T18:46:38.618Z,31.33
2019-02-27T18:49:08.427Z,35.40
2019-02-27T18:51:37.693Z,31.37
2019-02-27T18:54:07.218Z,32.57
2019-02-27T18:56:36.681Z,31.20
2019-02-27T18:59:07.319Z,29.83
2019-02-27T19:01:36.462Z,30.70
2019-02-27T19:04:06.566Z,29.43
2019-02-27T19:06:35.996Z,31.60
2019-02-27T19:09:05.725Z,28.97
2019-02-27T19:11:36.098Z,32.83
2019-02-27T19:14:05.673Z,39.37
2019-02-27T19:16:36.553Z,33.53
2019-02-27T19:19:05.723Z,37.10
2019-02-27T19:21:35.350Z,31.37
2019-02-27T19:24:04.573Z,31.57
2019-02-27T19:26:33.781Z,29.23
2019-02-27T19:29:04.177Z,30.53
2019-02-27T19:31:33.861Z,30.67
2019-02-27T19:34:03.532Z,30.33
2019-02-27T19:36:33.223Z,31.63
2019-02-27T19:39:02.994Z,30.00
2019-02-27T19:41:38.706Z,29.20
2019-02-27T19:44:05.626Z,31.80
2019-02-27T19:46:34.826Z,30.23
2019-02-27T19:49:04.535Z,29.00
2019-02-27T19:51:34.214Z,30.33
2019-02-27T19:54:03.919Z,28.60
2019-02-27T19:56:35.526Z,30.10
2019-02-27T19:59:04.537Z,27.10
2019-02-27T20:01:34.078Z,30.53
2019-02-27T20:04:09.234Z,31.03
2019-02-27T20:06:34.671Z,33.23
2019-02-27T20:09:05.636Z,31.63
2019-02-27T20:11:39.960Z,31.40
2019-02-27T20:14:09.161Z,31.80
2019-02-27T20:16:38.847Z,29.23
2019-02-27T20:19:09.514Z,30.47
2019-02-27T20:21:38.691Z,27.70
2019-02-27T20:24:14.444Z,30.67
2019-02-27T20:26:44.536Z,31.87
2019-02-27T20:29:09.889Z,42.70
2019-02-27T20:31:39.494Z,41.23
2019-02-27T20:34:11.581Z,37.70
2019-02-27T20:36:40.061Z,31.80
2019-02-27T20:39:10.137Z,31.60
2019-02-27T20:41:43.857Z,30.77
2019-02-27T20:44:13.346Z,29.07
2019-02-27T20:46:42.600Z,31.40
2019-02-27T20:49:14.016Z,30.67
2019-02-27T20:51:43.162Z,29.97
2019-02-27T20:54:12.313Z,32.13
2019-02-27T20:56:41.443Z,35.73
2019-02-27T20:59:11.094Z,31.50
2019-02-27T21:01:46.718Z,31.20
2019-02-27T21:04:11.899Z,29.70
2019-02-27T21:06:47.233Z,30.93
2019-02-27T21:09:13.368Z,31.37
2019-02-27T21:11:43.122Z,35.00
2019-02-27T21:14:12.802Z,33.63
2019-02-27T21:16:45.689Z,31.87
2019-02-27T21:19:14.599Z,38.57
2019-02-27T21:21:45.270Z,35.53
2019-02-27T21:24:15.227Z,36.50
2019-02-27T21:26:44.413Z,32.03
2019-02-27T21:29:14.036Z,38.10
2019-02-27T21:31:43.150Z,36.83
2019-02-27T21:34:12.308Z,39.20
2019-02-27T21:36:41.879Z,31.73
2019-02-27T21:39:11.557Z,31.13
2019-02-27T21:41:42.328Z,31.60
2019-02-27T21:44:11.807Z,34.57
2019-02-27T21:46:46.202Z,35.13
2019-02-27T21:49:13.648Z,32.90
2019-02-27T21:51:47.741Z,31.50
2019-02-27T21:54:14.164Z,31.73
2019-02-27T21:56:43.253Z,28.53
2019-02-27T21:59:12.882Z,29.83
2019-02-27T22:01:42.076Z,28.87
2019-02-27T22:04:11.674Z,33.40
2019-02-27T22:06:40.857Z,32.97
2019-02-27T22:09:13.458Z,31.03
2019-02-27T22:11:41.714Z,30.63
2019-02-27T22:14:11.345Z,30.03
2019-02-27T22:16:41.965Z,28.67
2019-02-27T22:19:11.587Z,30.27
2019-02-27T22:21:41.206Z,29.77
2019-02-27T22:24:10.430Z,31.37
2019-02-27T22:26:39.561Z,34.37
2019-02-27T22:29:09.179Z,32.77
2019-02-27T22:31:40.592Z,30.07
2019-02-27T22:34:09.640Z,28.90
2019-02-27T22:36:38.809Z,38.87
2019-02-27T22:39:07.985Z,29.43
2019-02-27T22:41:40.681Z,31.33
2019-02-27T22:44:10.133Z,30.43
2019-02-27T22:46:39.683Z,28.93
2019-02-27T22:49:09.325Z,29.80
2019-02-27T22:51:38.505Z,29.70
2019-02-27T22:54:07.618Z,29.67
2019-02-27T22:56:37.172Z,35.00
2019-02-27T22:59:06.491Z,30.70
2019-02-27T23:01:49.397Z,36.90
2019-02-27T23:04:15.057Z,28.27
2019-02-27T23:06:47.208Z,29.83
2019-02-27T23:09:16.186Z,31.77
2019-02-27T23:11:46.133Z,31.97
2019-02-27T23:14:18.788Z,29.67
2019-02-27T23:16:46.865Z,28.97
2019-02-27T23:19:16.975Z,30.90
2019-02-27T23:21:47.665Z,31.50
2019-02-27T23:24:17.937Z,31.77
2019-02-27T23:26:47.594Z,32.40
2019-02-27T23:29:17.269Z,29.47
2019-02-27T23:31:46.981Z,31.33
2019-02-27T23:34:16.168Z,30.20
2019-02-27T23:36:45.715Z,33.63
2019-02-27T23:39:16.109Z,29.97
2019-02-27T23:41:45.749Z,28.63
2019-02-27T23:44:15.458Z,32.03
2019-02-27T23:46:51.253Z,31.10
2019-02-27T23:49:17.690Z,32.50
2019-02-27T23:51:47.733Z,34.37
2019-02-27T23:54:17.746Z,33.60
2019-02-27T23:56:46.858Z,32.00
2019-02-27T23:59:15.961Z,34.43
